Huslia, Alaska
Current Conditions -  °F | °C
As of 12:36 AM on Tuesday 21 Oct 2014 (Local Time) from PAHL Reporting Station
Clear Clear  
Wind Chill: 19°   Ceiling: Unl
Heat Index: 27°   Visibility: 10mi
Dew Point: 18°   Wind: 7mph
Humidity: 69%   Direction: 70°ENE
Pressure: 29.35"   Gusts: NA
Location:  65.7°N, 156.4°W
Report Text: PAHL 210836Z AUTO 07006KT 10SM CLR M03/M08 A2935 RMK AO1
Loading
Personal Weather Stations






























Interactive Weather Map
Tropical Storm Tracking
New forecast layout! Learn more

10-Day Weather Forecast

Advertisements
Track Severe Weather on mobile